KSRB

Details ICAO KSRB
Name UPPER CUMBERLAND RGNL
Region United States
Timezone America/Chicago (UTC-6.0)
Plans Departing 12
Arriving 3
Stats Elevation 1,025 ft / 312 m (AMSL)
Location 36.055919° -85.530723°
Runways 1
Magnetic Variation 4.655° W
Sunrise 2017-12-11 12:44:22 UTC / 2017-12-11 06:44:22 Local
Sunset 2017-12-11 22:29:31 UTC / 2017-12-11 16:29:31 Local
Advertisement - Login to hide

Runways

ID Width Length Bearing (true) Bearing (mag) Surface Threshold Offset Overrun Length
04 100 ft / 30 m 6,005 ft / 1,830 m 34.57° 39.23° Asphalt 0 ft / 0 m 0 ft / 0 m
22 100 ft / 30 m 6,005 ft / 1,830 m 214.58° 219.24° Asphalt 0 ft / 0 m 0 ft / 0 m

Map

Weather


0- 5 10 15 20 25 30 35+ Temperature / ° C

Clouds and Precipitation
Forecast for 2017-12-12 00:00 UTC. Updated an hour ago

Ground ~20,000 ft ~40,000 ft Winds

METAR

KSRB 120015Z AUTO 19011G17KT 10SM CLR 11/M01 A2986 RMK A01

TAF

Not found

Frequencies

Recorded 128.25 MHz AWOS 3
Unicom 122.80 MHz CTAF/UNICOM
Warning: Do not use this data for real-world aviation or navigation. No guarantee of current accuracy is given.